Pagrindinis puslapis
METAR-TAF:

METAR-TAF

Oro uostai :

NASA Shuttle Landing Facility

Kenedžio kosminių skrydžių centras, Florida, Jungtinės Amerikos Valstijos

platuma: 28-37N, ilguma: 080-43W, Aukštis: 3 m

Dabartinis oras

Ataskaita buvo paskelbta 51 minutes, ne 07:58 UTC
Vėjas 13 kt iš Šiaurės Vakarų
Temperatūra 13°C
Drėgmė 88%
Slėgis 1017 hPa
Matomumas: 16.1 km
Išsisklaidę debesys ne aukštis 4000 ft
Su prošvaistėmis ne aukštis 11000 ft
dulksna

METAR: KTTS 270758Z AUTO 31013KT 10SM -DZ SCT040 BKN110 13/11 A3002 RMK AO2 DZE56DZB58 SLP170 VISNO RWY15 CHINO RWY15 $

Laikas: 03:49 (08:49 UTC)


TAF: trūkstamas

Orai ataskaitas ir orų prognozės (METAR, TAF).

turimą stotys yra geltonos ir raudonos taškus žemėlapyje.

Perkelti pele per norėdami pamatyti stoties vardą.

Tada spustelėkite, norėdami matyti oro stebėjimo ir prognozės.

Norėdami pakeisti žemėlapį: spustelėkite ant žalios mygtukų su juodo kryžiaus žemyn,; žalią mygtuką su brūkšneliu, jei norite nutolinti; arba žalių rodyklių gretimoms žemėlapius.


METAR-TAF: